• Join FlightAware (Why Join?)
  • Login
  • US Flag 
12:05PM EDT


 

Airport Tracker/Info


-or-


 

Live Flight TrackerFlight Track Log ✈ AWE2690 ✈ 02-Nov-2013 ✈ KMYR - KCLT

Flight Track Log - Related Links

Times and Time Zones

All times are in EDT time to prevent confusion due to time zone crossing. See the AWE2690 flight status page for this flight to view local times or setup timezone preferences in your user account.

Time Position Orientation Groundspeed Altitude Reporting Facility
EDT Latitude Longitude Course Direction KTS MPH feet Rate Location/Type
01:28PM 33.7558 -78.9433 310° West 197 227 3,300  Level Jacksonville Center
01:29PM 33.7989 -78.9889 319° Northwest 204 235 5,500 2,520 Climbing Jacksonville Center
01:30PM 33.9205 -79.2378 313° West  Level Estimated
01:30PM 33.8428 -79.0594 307° West 220 253 8,400  Level Jacksonville Center
01:31PM 33.9805 -79.3154 312° West  Level Estimated
01:31PM 33.8889 -79.1325 307° West 251 289 10,800  Level Jacksonville Center
01:32PM 34.0377 -79.3962 311° West  Level FlightAware Approximate
01:32PM 33.9456 -79.2178 309° West 298 343 12,300  Level Jacksonville Center
01:33PM 34.0949 -79.4771 310° West  Level FlightAware Approximate
01:33PM 34.0047 -79.3128 307° West 335 386 14,000  Level Jacksonville Center
01:34PM 34.0700 -79.4106 309° West 364 419 16,400 2,520 Climbing Jacksonville Center
01:35PM 34.1372 -79.5031 311° West 370 426 19,100 1,800 Climbing Jacksonville Center
01:36PM 34.1981 -79.5961 308° West 365 420 20,000 420 Climbing Jacksonville Center
01:37PM 34.2525 -79.6819 308° West 347 399 20,000  Level Jacksonville Center
01:38PM 34.3153 -79.7753 309° West 347 399 20,000  Level Jacksonville Center
01:39PM 34.3717 -79.8586 309° West 347 399 20,000 -60 Level Jacksonville Center
01:40PM 34.4364 -79.9522 310° West 352 405 19,900 -1,260 Descending Jacksonville Center
01:41PM 34.4969 -80.0433 309° West 359 413 17,500 -2,280 Descending Jacksonville Center
01:42PM 34.5531 -80.1272 309° West 353 406 15,400 -1,860 Descending Jacksonville Center
01:44PM 34.6597 -80.2939 308° West 266 306 11,800 -1,380 Descending Atlanta Center
01:45PM 34.7158 -80.3619 315° West 259 298 11,000 -900 Descending Atlanta Center
01:46PM 34.7469 -80.4264 300° West 260 299 10,100 -1,560 Descending Atlanta Center
01:47PM 34.7744 -80.5036 293° West 265 305 8,400 -1,800 Descending Atlanta Center
01:48PM 34.8106 -80.6058 293° West 258 297 6,100 -1,140 Descending Atlanta Center
01:49PM 34.8311 -80.6683 292° West 255 293 6,000 -60 Descending Atlanta Center
01:50PM 34.8628 -80.7606 293° West 255 293 6,000 -600 Level Atlanta Center
01:51PM 34.9061 -80.8197 312° West 260 299 4,800 -1,080 Descending Atlanta Center
01:52PM 34.9617 -80.8708 323° Northwest 254 292 4,000 -360 Descending Atlanta Center
01:53PM 35.0444 -80.9233 333° Northwest 259 298 4,000 -300 Level Atlanta Center
01:54PM 35.1072 -80.9286 356° North 214 246 3,300 -960 Descending Atlanta Center
01:55PM 35.1511 -80.9319 356° North 155 178 2,200 -1,260 Descending Atlanta Center